createdAt,value
2022-09-12T00:04:16.645Z,4.70
2022-09-12T00:09:18.273Z,5.33
2022-09-12T00:14:19.940Z,5.50
2022-09-12T00:19:21.575Z,5.97
2022-09-12T00:24:23.409Z,5.13
2022-09-12T00:29:25.056Z,5.10
2022-09-12T00:34:26.718Z,5.03
2022-09-12T00:39:28.369Z,5.93
2022-09-12T00:44:29.820Z,5.20
2022-09-12T00:49:52.374Z,5.03
2022-09-12T00:55:10.627Z,5.03
2022-09-12T01:00:15.479Z,4.90
2022-09-12T01:05:17.271Z,5.23
2022-09-12T01:10:19.009Z,5.00
2022-09-12T01:15:20.640Z,5.53
2022-09-12T01:20:38.199Z,5.07
2022-09-12T01:26:17.382Z,4.63
2022-09-12T01:31:54.233Z,4.60
2022-09-12T01:37:10.770Z,5.17
2022-09-12T01:42:20.724Z,5.20
2022-09-12T01:47:27.004Z,5.23
2022-09-12T01:52:39.489Z,5.27
2022-09-12T01:57:45.579Z,6.00
2022-09-12T02:02:51.884Z,5.67
2022-09-12T02:07:56.969Z,5.33
2022-09-12T02:13:11.517Z,5.60
2022-09-12T02:18:14.519Z,5.60
2022-09-12T02:23:27.890Z,6.03
2022-09-12T02:28:35.185Z,6.13
2022-09-12T02:33:44.470Z,6.60
2022-09-12T02:38:46.826Z,6.67
2022-09-12T02:43:48.857Z,5.33
2022-09-12T02:48:50.568Z,6.07
2022-09-12T02:53:52.221Z,5.90
2022-09-12T02:58:54.238Z,5.63
2022-09-12T03:04:05.856Z,5.00
2022-09-12T03:09:20.220Z,5.60
2022-09-12T03:14:49.573Z,6.50
2022-09-12T03:19:54.128Z,10.00
2022-09-12T03:25:19.178Z,10.50
2022-09-12T03:30:23.201Z,8.50
2022-09-12T03:35:24.935Z,7.80
2022-09-12T03:40:26.571Z,7.50
2022-09-12T03:45:28.237Z,7.17
2022-09-12T03:50:29.938Z,6.43
2022-09-12T03:55:31.548Z,7.00
2022-09-12T04:00:33.299Z,6.43
2022-09-12T04:05:35.497Z,6.40
2022-09-12T04:10:37.109Z,6.57
2022-09-12T04:15:38.867Z,8.47
2022-09-12T04:20:40.471Z,7.57
2022-09-12T04:25:42.736Z,7.23
2022-09-12T04:30:44.407Z,7.67
2022-09-12T04:35:46.038Z,8.33
2022-09-12T04:40:47.721Z,8.47
2022-09-12T04:45:49.377Z,7.33
2022-09-12T04:50:51.005Z,6.80
2022-09-12T04:55:52.615Z,6.13
2022-09-12T05:00:54.295Z,6.20
2022-09-12T05:05:56.625Z,6.80
2022-09-12T05:11:03.606Z,6.33
2022-09-12T05:16:05.719Z,6.27
2022-09-12T05:21:08.179Z,6.60
2022-09-12T05:26:12.439Z,7.80
2022-09-12T05:31:19.024Z,8.60
2022-09-12T05:36:29.961Z,8.73
2022-09-12T05:41:32.911Z,8.50
2022-09-12T05:46:39.103Z,8.80
2022-09-12T05:51:45.104Z,8.90
2022-09-12T05:56:46.917Z,9.60
2022-09-12T06:01:48.664Z,10.17
2022-09-12T06:06:51.819Z,8.93
2022-09-12T06:11:53.552Z,10.90
2022-09-12T06:16:55.412Z,10.27
2022-09-12T06:21:57.123Z,9.70
2022-09-12T06:26:58.727Z,10.00
2022-09-12T06:32:00.468Z,12.23
2022-09-12T06:37:03.969Z,12.33
2022-09-12T06:42:05.714Z,13.07
2022-09-12T06:47:12.298Z,13.27
2022-09-12T06:52:13.949Z,13.27
2022-09-12T06:57:15.556Z,13.77
2022-09-12T07:02:17.185Z,13.07
2022-09-12T07:07:18.825Z,15.30
2022-09-12T07:12:20.471Z,11.63
2022-09-12T07:17:22.084Z,12.00
2022-09-12T07:22:23.696Z,19.33
2022-09-12T07:27:25.535Z,18.83
2022-09-12T07:32:27.475Z,20.13
2022-09-12T07:37:32.267Z,20.07
2022-09-12T07:42:33.919Z,17.80
2022-09-12T07:47:35.542Z,19.27
2022-09-12T07:52:37.185Z,18.17
2022-09-12T07:57:38.837Z,19.00
2022-09-12T08:02:41.167Z,20.33
2022-09-12T08:07:42.811Z,18.53
2022-09-12T08:12:44.430Z,19.07
2022-09-12T08:17:46.059Z,17.70
2022-09-12T08:22:47.797Z,19.37
2022-09-12T08:27:49.496Z,17.07
2022-09-12T08:32:51.273Z,17.23
2022-09-12T08:37:52.935Z,16.30
2022-09-12T08:43:03.051Z,16.50
2022-09-12T08:48:04.914Z,16.47
2022-09-12T08:53:18.057Z,14.97
2022-09-12T08:58:23.550Z,14.60
2022-09-12T09:04:16.053Z,14.50
2022-09-12T09:09:36.545Z,13.63
2022-09-12T09:15:05.201Z,13.70
2022-09-12T09:20:30.105Z,11.03
2022-09-12T09:25:50.742Z,11.27
2022-09-12T09:30:52.556Z,10.00
2022-09-12T09:36:11.470Z,8.60
2022-09-12T09:41:17.774Z,9.63
2022-09-12T09:46:19.457Z,10.13
2022-09-12T09:51:26.038Z,10.40
2022-09-12T09:56:35.526Z,20.40
2022-09-12T10:01:38.836Z,9.50
2022-09-12T10:06:40.759Z,11.07
2022-09-12T10:11:45.781Z,9.20
2022-09-12T10:16:49.717Z,9.13
2022-09-12T10:21:52.137Z,6.73
2022-09-12T10:26:56.937Z,6.77
2022-09-12T10:32:04.583Z,6.03
2022-09-12T10:37:07.812Z,6.70
2022-09-12T10:42:14.043Z,4.33
2022-09-12T10:47:20.640Z,5.00
2022-09-12T10:52:23.523Z,5.10
2022-09-12T10:58:06.745Z,6.20
2022-09-12T11:03:28.292Z,4.63
2022-09-12T11:08:52.081Z,6.00
2022-09-12T11:14:25.064Z,5.30
2022-09-12T11:19:35.546Z,4.60
2022-09-12T11:25:01.966Z,3.93
2022-09-12T11:30:13.791Z,4.10
2022-09-12T11:35:17.421Z,4.43
2022-09-12T11:40:20.416Z,4.00
2022-09-12T11:45:51.319Z,3.67
2022-09-12T11:50:52.965Z,4.67
2022-09-12T11:56:10.394Z,4.57
2022-09-12T12:01:20.981Z,4.07
2022-09-12T12:06:33.855Z,7.40
2022-09-12T12:11:41.391Z,5.37
2022-09-12T12:16:43.140Z,3.67
2022-09-12T12:21:47.858Z,3.17
2022-09-12T12:27:07.865Z,3.00
2022-09-12T12:32:09.308Z,3.50
2022-09-12T12:37:22.971Z,35.40
2022-09-12T12:42:36.706Z,4.60
2022-09-12T12:47:38.146Z,3.10
2022-09-12T12:52:49.179Z,4.30
2022-09-12T12:57:51.500Z,3.33
2022-09-12T13:03:06.094Z,10.93
2022-09-12T13:08:10.787Z,3.37
2022-09-12T13:13:23.715Z,3.33
2022-09-12T13:18:46.232Z,5.77
2022-09-12T13:24:13.918Z,17.77
2022-09-12T13:29:19.678Z,3.67
2022-09-12T13:34:26.141Z,3.20
2022-09-12T13:39:28.936Z,2.70
2022-09-12T13:44:31.039Z,2.80
2022-09-12T13:49:35.191Z,2.03
2022-09-12T13:54:37.909Z,3.30
2022-09-12T13:59:40.136Z,2.60
2022-09-12T14:05:00.491Z,2.20
2022-09-12T14:10:03.346Z,2.03
2022-09-12T14:15:05.509Z,2.10
2022-09-12T14:20:09.247Z,2.23
2022-09-12T14:25:15.096Z,1.80
2022-09-12T14:30:32.784Z,2.07
2022-09-12T14:35:34.399Z,2.57
2022-09-12T14:40:50.487Z,2.57
2022-09-12T14:46:00.247Z,2.60
2022-09-12T14:51:02.290Z,2.13
2022-09-12T14:56:09.146Z,2.37
2022-09-12T15:01:10.650Z,2.40
2022-09-12T15:06:32.396Z,3.20
2022-09-12T15:11:34.041Z,2.83
2022-09-12T15:16:35.648Z,2.60
2022-09-12T15:21:37.258Z,3.17
2022-09-12T15:26:39.053Z,3.70
2022-09-12T15:31:40.646Z,3.30
2022-09-12T15:36:42.249Z,2.50
2022-09-12T15:41:43.876Z,3.10
2022-09-12T15:46:45.710Z,2.83
2022-09-12T15:51:47.429Z,3.40
2022-09-12T15:56:49.608Z,3.70
2022-09-12T16:01:51.578Z,4.50
2022-09-12T16:06:54.574Z,4.40
2022-09-12T16:11:56.202Z,4.40
2022-09-12T16:16:58.298Z,3.77
2022-09-12T16:21:59.900Z,4.43
2022-09-12T16:27:01.622Z,4.07
2022-09-12T16:32:03.444Z,4.60
2022-09-12T16:37:05.585Z,4.30
2022-09-12T16:42:07.232Z,4.40
2022-09-12T16:47:09.001Z,5.03
2022-09-12T16:52:10.846Z,7.00
2022-09-12T16:57:12.492Z,5.00
2022-09-12T17:02:14.306Z,4.33
2022-09-12T17:07:15.963Z,3.57
2022-09-12T17:12:17.583Z,4.57
2022-09-12T17:17:19.222Z,5.70
2022-09-12T17:22:20.883Z,8.30
2022-09-12T17:27:22.496Z,11.83
2022-09-12T17:32:24.124Z,8.17
2022-09-12T17:37:25.778Z,5.80
2022-09-12T17:42:28.591Z,12.47
2022-09-12T17:47:30.225Z,7.57
2022-09-12T17:52:34.497Z,6.40
2022-09-12T17:57:37.100Z,5.83
2022-09-12T18:02:45.327Z,5.63
2022-09-12T18:07:46.972Z,7.40
2022-09-12T18:12:48.599Z,5.20
2022-09-12T18:17:50.267Z,5.33
2022-09-12T18:22:51.882Z,6.00
2022-09-12T18:27:53.568Z,5.43
2022-09-12T18:32:55.216Z,7.20
2022-09-12T18:38:02.033Z,5.57
2022-09-12T18:43:03.685Z,5.90
2022-09-12T18:48:06.485Z,6.40
2022-09-12T18:53:09.149Z,5.70
2022-09-12T18:58:10.804Z,5.40
2022-09-12T19:03:12.468Z,7.57
2022-09-12T19:08:14.086Z,6.77
2022-09-12T19:13:17.495Z,6.10
2022-09-12T19:18:20.182Z,6.17
2022-09-12T19:23:21.796Z,6.33
2022-09-12T19:28:24.449Z,6.40
2022-09-12T19:33:26.294Z,6.27
2022-09-12T19:38:28.266Z,6.70
2022-09-12T19:43:30.954Z,6.10
2022-09-12T19:48:32.620Z,6.40
2022-09-12T19:53:36.759Z,5.90
2022-09-12T19:58:45.480Z,6.30
2022-09-12T20:03:47.292Z,6.10
2022-09-12T20:08:49.028Z,5.93
2022-09-12T20:13:50.705Z,6.00
2022-09-12T20:18:54.102Z,6.60
2022-09-12T20:24:10.189Z,6.30
2022-09-12T20:29:16.389Z,6.10
2022-09-12T20:34:20.270Z,6.43
2022-09-12T20:39:22.427Z,6.50
2022-09-12T20:44:24.109Z,6.27
2022-09-12T20:49:26.246Z,6.60
2022-09-12T20:54:27.926Z,5.70
2022-09-12T20:59:29.681Z,6.00
2022-09-12T21:04:31.316Z,5.93
2022-09-12T21:09:33.922Z,6.37
2022-09-12T21:14:35.560Z,5.97
2022-09-12T21:19:37.222Z,6.30
2022-09-12T21:24:38.829Z,5.90
2022-09-12T21:29:41.017Z,5.73
2022-09-12T21:34:42.785Z,5.80
2022-09-12T21:39:45.165Z,5.13
2022-09-12T21:44:46.797Z,5.53
2022-09-12T21:49:48.427Z,5.60
2022-09-12T21:54:50.045Z,5.10
2022-09-12T21:59:51.690Z,4.70
2022-09-12T22:04:53.298Z,4.87
2022-09-12T22:09:55.215Z,4.90
2022-09-12T22:14:57.369Z,4.93
2022-09-12T22:19:59.169Z,4.70
2022-09-12T22:25:00.867Z,4.90
2022-09-12T22:30:02.507Z,4.50
2022-09-12T22:35:04.823Z,4.80
2022-09-12T22:40:06.777Z,4.30
2022-09-12T22:45:08.944Z,4.17
2022-09-12T22:50:10.565Z,4.27
2022-09-12T22:55:12.199Z,3.70
2022-09-12T23:00:14.829Z,4.73
2022-09-12T23:05:16.894Z,4.70
2022-09-12T23:10:18.521Z,4.70
2022-09-12T23:15:20.193Z,3.90
2022-09-12T23:20:21.805Z,5.30
2022-09-12T23:25:24.149Z,4.90
2022-09-12T23:30:25.841Z,4.37
2022-09-12T23:35:27.470Z,4.53
2022-09-12T23:40:29.093Z,4.30
2022-09-12T23:45:30.764Z,4.43
2022-09-12T23:50:32.440Z,4.60
2022-09-12T23:55:34.084Z,4.70
